createdAt,value
2017-11-23T00:00:27.966Z,0.10
2017-11-23T00:02:55.457Z,0.00
2017-11-23T00:05:23.720Z,-0.20
2017-11-23T00:07:51.215Z,-0.20
2017-11-23T00:10:18.708Z,-0.30
2017-11-23T00:12:46.236Z,-0.40
2017-11-23T00:15:13.729Z,-0.40
2017-11-23T00:17:42.018Z,-0.40
2017-11-23T00:20:09.529Z,-0.40
2017-11-23T00:22:36.997Z,-0.20
2017-11-23T00:25:04.524Z,-0.20
2017-11-23T00:27:32.765Z,-0.10
2017-11-23T00:30:00.241Z,-0.10
2017-11-23T00:32:27.744Z,-0.10
2017-11-23T00:34:55.230Z,-0.10
2017-11-23T00:37:22.733Z,-0.10
2017-11-23T00:39:50.211Z,-0.10
2017-11-23T00:42:17.712Z,-0.10
2017-11-23T00:44:45.227Z,-0.20
2017-11-23T00:47:13.472Z,-0.20
2017-11-23T00:49:41.764Z,-0.40
2017-11-23T00:52:10.001Z,-0.60
2017-11-23T00:54:37.505Z,-0.70
2017-11-23T00:57:05.761Z,-0.40
2017-11-23T00:59:33.243Z,-0.40
2017-11-23T01:02:01.508Z,-0.30
2017-11-23T01:04:28.997Z,-0.20
2017-11-23T01:06:56.569Z,-0.20
2017-11-23T01:09:24.044Z,-0.30
2017-11-23T01:11:51.520Z,-0.30
2017-11-23T01:14:19.012Z,-0.20
2017-11-23T01:16:47.257Z,-0.20
2017-11-23T01:19:14.761Z,-0.20
2017-11-23T01:21:42.341Z,-0.20
2017-11-23T01:24:09.808Z,-0.30
2017-11-23T01:26:37.327Z,-0.30
2017-11-23T01:29:05.565Z,-0.50
2017-11-23T01:31:33.060Z,-0.50
2017-11-23T01:34:01.291Z,-0.70
2017-11-23T01:36:28.817Z,-0.70
2017-11-23T01:38:56.308Z,-0.50
2017-11-23T01:41:23.790Z,-0.50
2017-11-23T01:43:51.276Z,-0.40
2017-11-23T01:46:19.521Z,-0.30
2017-11-23T01:48:47.033Z,-0.40
2017-11-23T01:51:14.530Z,-0.40
2017-11-23T01:53:42.055Z,-0.30
2017-11-23T01:56:09.549Z,-0.40
2017-11-23T01:58:37.058Z,-0.30
2017-11-23T02:01:05.341Z,-0.30
2017-11-23T02:03:32.819Z,-0.40
2017-11-23T02:06:00.293Z,-0.30
2017-11-23T02:08:27.820Z,-0.40
2017-11-23T02:10:55.304Z,-0.30
2017-11-23T02:13:22.847Z,-0.40
2017-11-23T02:15:50.313Z,-0.40
2017-11-23T02:18:17.969Z,-0.40
2017-11-23T02:20:45.509Z,-0.60
2017-11-23T02:23:13.765Z,-0.50
2017-11-23T02:25:42.037Z,-0.60
2017-11-23T02:28:09.509Z,-0.60
2017-11-23T02:30:37.813Z,-0.50
2017-11-23T02:33:05.282Z,-0.50
2017-11-23T02:35:32.782Z,-0.50
2017-11-23T02:38:00.292Z,-0.50
2017-11-23T02:40:27.760Z,-0.50
2017-11-23T02:42:55.302Z,-0.50
2017-11-23T02:45:22.767Z,-0.60
2017-11-23T02:47:50.270Z,-0.70
2017-11-23T02:50:17.769Z,-0.60
2017-11-23T02:52:46.057Z,-0.60
2017-11-23T02:55:13.542Z,-0.70
2017-11-23T02:57:41.012Z,-0.70
2017-11-23T03:00:08.526Z,-0.70
2017-11-23T03:02:36.005Z,-0.70
2017-11-23T03:05:03.504Z,-0.70
2017-11-23T03:07:30.984Z,-0.70
2017-11-23T03:09:59.292Z,-1.00
2017-11-23T03:12:26.765Z,-1.00
2017-11-23T03:14:54.228Z,-0.90
2017-11-23T03:17:21.759Z,-0.90
2017-11-23T03:19:49.230Z,-1.00
2017-11-23T03:22:16.744Z,-1.00
2017-11-23T03:24:44.244Z,-0.90
2017-11-23T03:27:11.718Z,-0.90
2017-11-23T03:29:39.217Z,-1.30
2017-11-23T03:32:06.680Z,-1.40
2017-11-23T03:34:34.940Z,-1.10
2017-11-23T03:37:02.420Z,-1.10
2017-11-23T03:39:30.681Z,-1.10
2017-11-23T03:41:58.168Z,-1.10
2017-11-23T03:44:26.414Z,-1.50
2017-11-23T03:46:53.924Z,-1.50
2017-11-23T03:49:21.422Z,-1.50
2017-11-23T03:51:48.888Z,-1.40
2017-11-23T03:54:16.380Z,-1.50
2017-11-23T03:56:44.609Z,-1.50
2017-11-23T03:59:12.113Z,-1.50
2017-11-23T04:01:40.357Z,-1.30
2017-11-23T04:04:07.880Z,-1.30
2017-11-23T04:06:35.391Z,-1.30
2017-11-23T04:09:02.885Z,-1.30
2017-11-23T04:11:30.353Z,-1.30
2017-11-23T04:13:57.865Z,-1.40
2017-11-23T04:16:26.245Z,-1.30
2017-11-23T04:18:54.499Z,-1.40
2017-11-23T04:21:21.971Z,-1.40
2017-11-23T04:23:49.490Z,-1.70
2017-11-23T04:26:17.037Z,-1.50
2017-11-23T04:28:44.547Z,-1.60
2017-11-23T04:31:12.016Z,-1.50
2017-11-23T04:33:39.537Z,-1.60
2017-11-23T04:36:07.020Z,-1.70
2017-11-23T04:38:34.528Z,-1.60
2017-11-23T04:41:02.016Z,-1.60
2017-11-23T04:43:29.525Z,-1.70
2017-11-23T04:45:57.743Z,-1.70
2017-11-23T04:48:25.243Z,-1.70
2017-11-23T04:50:52.745Z,-1.70
2017-11-23T04:53:20.212Z,-1.60
2017-11-23T04:55:47.689Z,-1.60
2017-11-23T04:58:15.183Z,-1.60
2017-11-23T05:00:43.445Z,-1.90
2017-11-23T05:03:10.941Z,-1.90
2017-11-23T05:05:38.414Z,-2.00
2017-11-23T05:08:05.938Z,-2.00
2017-11-23T05:10:34.168Z,-1.80
2017-11-23T05:13:01.645Z,-1.80
2017-11-23T05:15:29.142Z,-1.70
2017-11-23T05:17:57.372Z,-1.60
2017-11-23T05:20:24.873Z,-1.60
2017-11-23T05:22:53.121Z,-1.50
2017-11-23T05:25:20.624Z,-1.60
2017-11-23T05:27:49.052Z,-1.60
2017-11-23T05:30:16.527Z,-1.70
2017-11-23T05:32:44.030Z,-1.70
2017-11-23T05:35:11.533Z,-1.60
2017-11-23T05:37:39.033Z,-1.90
2017-11-23T05:40:06.513Z,-1.90
2017-11-23T05:42:34.038Z,-1.70
2017-11-23T05:45:02.274Z,-1.70
2017-11-23T05:47:30.484Z,-1.70
2017-11-23T05:49:58.778Z,-1.70
2017-11-23T05:52:27.021Z,-1.60
2017-11-23T05:54:54.540Z,-1.60
2017-11-23T05:57:22.040Z,-1.80
2017-11-23T05:59:49.516Z,-1.70
2017-11-23T06:02:17.779Z,-1.70
2017-11-23T06:04:45.272Z,-1.70
2017-11-23T06:07:12.771Z,-1.70
2017-11-23T06:09:40.268Z,-1.70
2017-11-23T06:12:07.740Z,-1.80
2017-11-23T06:14:36.017Z,-1.70
2017-11-23T06:17:04.263Z,-1.70
2017-11-23T06:19:31.737Z,-1.70
2017-11-23T06:22:00.012Z,-1.70
2017-11-23T06:24:28.425Z,-1.80
2017-11-23T06:26:55.928Z,-1.80
2017-11-23T06:29:23.461Z,-1.70
2017-11-23T06:31:50.936Z,-1.90
2017-11-23T06:34:18.424Z,-1.90
2017-11-23T06:36:45.894Z,-1.80
2017-11-23T06:39:14.159Z,-2.00
2017-11-23T06:41:41.631Z,-2.10
2017-11-23T06:44:09.882Z,-2.00
2017-11-23T06:46:37.706Z,-2.00
2017-11-23T06:49:05.187Z,-1.90
2017-11-23T06:51:32.678Z,-2.00
2017-11-23T06:54:00.183Z,-2.20
2017-11-23T06:56:27.649Z,-2.20
2017-11-23T06:58:55.119Z,-2.20
2017-11-23T07:01:22.612Z,-1.30
2017-11-23T07:03:50.081Z,-0.30
2017-11-23T07:06:18.422Z,0.70
2017-11-23T07:08:45.905Z,0.70
2017-11-23T07:11:13.381Z,1.10
2017-11-23T07:13:41.629Z,-0.40
2017-11-23T07:16:09.129Z,-0.40
2017-11-23T07:18:36.636Z,-0.80
2017-11-23T07:21:04.146Z,-1.30
2017-11-23T07:23:32.396Z,-1.50
2017-11-23T07:25:59.869Z,-1.50
2017-11-23T07:28:29.988Z,-1.50
2017-11-23T07:30:58.243Z,-1.40
2017-11-23T07:33:25.749Z,-1.40
2017-11-23T07:35:53.243Z,-1.30
2017-11-23T07:38:20.702Z,-1.20
2017-11-23T07:40:48.220Z,-1.20
2017-11-23T07:43:15.701Z,-1.10
2017-11-23T07:45:43.172Z,-1.00
2017-11-23T07:48:10.720Z,-1.00
2017-11-23T07:50:38.235Z,-1.10
2017-11-23T07:53:06.461Z,-0.90
2017-11-23T07:55:33.957Z,-1.00
2017-11-23T07:58:01.449Z,-1.00
2017-11-23T08:00:28.959Z,-0.90
2017-11-23T08:02:56.424Z,-0.60
2017-11-23T08:05:24.037Z,-0.60
2017-11-23T08:07:51.529Z,-0.50
2017-11-23T08:10:19.029Z,-0.30
2017-11-23T08:12:47.302Z,-0.10
2017-11-23T08:15:15.544Z,0.00
2017-11-23T08:17:43.031Z,0.00
2017-11-23T08:20:11.299Z,0.20
2017-11-23T08:22:38.801Z,0.10
2017-11-23T08:25:06.322Z,0.30
2017-11-23T08:27:33.785Z,0.20
2017-11-23T08:30:02.098Z,0.10
2017-11-23T08:32:29.607Z,0.10
2017-11-23T08:34:57.097Z,0.20
2017-11-23T08:37:24.607Z,0.30
2017-11-23T08:39:52.091Z,0.40
2017-11-23T08:42:19.608Z,0.50
2017-11-23T08:44:47.090Z,0.60
2017-11-23T08:47:14.682Z,0.80
2017-11-23T08:49:42.940Z,1.00
2017-11-23T08:52:10.438Z,1.00
2017-11-23T08:54:43.601Z,1.10
2017-11-23T08:57:11.828Z,1.10
2017-11-23T08:59:39.332Z,1.10
2017-11-23T09:02:06.820Z,1.10
2017-11-23T09:04:34.298Z,1.10
2017-11-23T09:07:01.811Z,1.10
2017-11-23T09:09:29.274Z,1.20
2017-11-23T09:11:58.004Z,1.20
2017-11-23T09:14:25.467Z,1.30
2017-11-23T09:16:53.824Z,1.30
2017-11-23T09:19:21.337Z,1.30
2017-11-23T09:21:48.850Z,1.40
2017-11-23T09:24:16.356Z,1.40
2017-11-23T09:26:43.820Z,1.50
2017-11-23T09:29:11.320Z,1.50
2017-11-23T09:31:38.839Z,1.60
2017-11-23T09:34:06.320Z,1.70
2017-11-23T09:36:34.565Z,1.90
2017-11-23T09:39:02.082Z,1.80
2017-11-23T09:41:29.556Z,2.00
2017-11-23T09:43:57.111Z,2.00
2017-11-23T09:46:24.593Z,2.00
2017-11-23T09:48:52.107Z,2.00
2017-11-23T09:51:19.593Z,2.10
2017-11-23T09:53:47.067Z,2.20
2017-11-23T09:56:14.562Z,2.30
2017-11-23T09:58:42.811Z,2.50
2017-11-23T10:01:10.323Z,2.50
2017-11-23T10:03:37.809Z,2.70
2017-11-23T10:06:05.294Z,2.90
2017-11-23T10:08:32.787Z,2.90
2017-11-23T10:11:00.266Z,3.00
2017-11-23T10:13:27.728Z,3.10
2017-11-23T10:15:55.217Z,3.10
2017-11-23T10:18:23.521Z,3.30
2017-11-23T10:20:50.980Z,3.30
2017-11-23T10:23:19.245Z,3.60
2017-11-23T10:25:46.737Z,3.50
2017-11-23T10:28:14.253Z,3.60
2017-11-23T10:30:41.755Z,3.60
2017-11-23T10:33:09.235Z,3.70
2017-11-23T10:35:36.740Z,3.80
2017-11-23T10:38:04.209Z,3.90
2017-11-23T10:40:32.460Z,4.00
2017-11-23T10:42:59.960Z,4.00
2017-11-23T10:45:27.461Z,4.10
2017-11-23T10:47:54.933Z,4.20
2017-11-23T10:50:22.421Z,4.30
2017-11-23T10:52:50.673Z,4.30
2017-11-23T10:55:18.180Z,4.30
2017-11-23T10:57:45.677Z,4.30
2017-11-23T11:00:13.162Z,4.40
2017-11-23T11:02:40.680Z,4.60
2017-11-23T11:05:08.157Z,4.70
2017-11-23T11:07:35.678Z,4.90
2017-11-23T11:10:03.161Z,5.10
2017-11-23T11:12:30.681Z,5.50
2017-11-23T11:14:58.936Z,6.50
2017-11-23T11:17:26.401Z,6.50
2017-11-23T11:19:54.670Z,7.00
2017-11-23T11:22:22.173Z,7.00
2017-11-23T11:24:49.683Z,7.10
2017-11-23T11:27:17.184Z,7.40
2017-11-23T11:29:44.715Z,7.60
2017-11-23T11:32:13.002Z,7.40
2017-11-23T11:34:41.244Z,7.50
2017-11-23T11:37:08.741Z,7.50
2017-11-23T11:39:36.212Z,7.70
2017-11-23T11:42:03.705Z,7.80
2017-11-23T11:44:31.184Z,7.60
2017-11-23T11:46:58.709Z,7.80
2017-11-23T11:49:26.185Z,8.00
2017-11-23T11:51:53.667Z,8.00
2017-11-23T11:54:21.184Z,8.20
2017-11-23T11:56:48.665Z,8.30
2017-11-23T11:59:16.129Z,8.40
2017-11-23T12:01:43.633Z,8.40
2017-11-23T12:04:11.143Z,8.50
2017-11-23T12:06:38.672Z,8.50
2017-11-23T12:09:06.167Z,8.40
2017-11-23T12:11:33.637Z,8.50
2017-11-23T12:14:12.933Z,8.40
2017-11-23T12:16:53.097Z,8.50
2017-11-23T12:19:20.584Z,8.50
2017-11-23T12:21:54.619Z,8.60
2017-11-23T12:24:31.569Z,8.50
2017-11-23T12:26:59.074Z,8.50
2017-11-23T12:29:38.530Z,8.50
2017-11-23T12:32:06.039Z,8.50
2017-11-23T12:34:34.282Z,8.90
2017-11-23T12:37:01.790Z,8.90
2017-11-23T12:39:30.028Z,9.30
2017-11-23T12:41:57.670Z,9.30
2017-11-23T12:44:25.171Z,9.70
2017-11-23T12:46:52.673Z,9.80
2017-11-23T12:49:20.178Z,9.70
2017-11-23T12:51:47.650Z,9.80
2017-11-23T12:54:15.128Z,9.80
2017-11-23T12:56:42.638Z,10.10
2017-11-23T12:59:10.876Z,10.10
2017-11-23T13:01:38.417Z,10.10
2017-11-23T13:04:06.668Z,10.10
2017-11-23T13:06:34.128Z,10.10
2017-11-23T13:09:01.625Z,10.10
2017-11-23T13:11:29.107Z,10.10
2017-11-23T13:13:56.630Z,10.10
2017-11-23T13:16:24.883Z,10.00
2017-11-23T13:18:52.400Z,10.00
2017-11-23T13:21:19.890Z,9.80
2017-11-23T13:23:47.369Z,9.90
2017-11-23T13:26:14.852Z,9.90
2017-11-23T13:28:42.353Z,10.10
2017-11-23T13:31:09.839Z,10.20
2017-11-23T13:33:37.323Z,10.30
2017-11-23T13:36:05.560Z,10.70
2017-11-23T13:38:33.053Z,10.60
2017-11-23T13:41:01.298Z,10.80
2017-11-23T13:43:28.794Z,10.80
2017-11-23T13:45:56.279Z,10.70
2017-11-23T13:48:23.736Z,10.60
2017-11-23T13:50:51.232Z,10.60
2017-11-23T13:53:18.688Z,10.50
2017-11-23T13:55:46.201Z,10.40
2017-11-23T13:58:13.681Z,10.40
2017-11-23T14:00:41.689Z,10.40
2017-11-23T14:03:10.688Z,10.20
2017-11-23T14:05:38.962Z,10.40
2017-11-23T14:08:06.480Z,10.30
2017-11-23T14:10:33.979Z,10.10
2017-11-23T14:13:01.433Z,10.10
2017-11-23T14:15:28.916Z,10.00
2017-11-23T14:17:56.380Z,10.00
2017-11-23T14:20:23.874Z,9.90
2017-11-23T14:22:51.340Z,9.80
2017-11-23T14:25:18.851Z,9.80
2017-11-23T14:27:47.097Z,9.60
2017-11-23T14:30:14.588Z,9.60
2017-11-23T14:32:42.100Z,9.60
2017-11-23T14:35:09.565Z,9.50
2017-11-23T14:37:37.016Z,9.40
2017-11-23T14:40:04.532Z,9.40
2017-11-23T14:42:32.481Z,9.60
2017-11-23T14:45:00.712Z,9.30
2017-11-23T14:47:28.990Z,9.30
2017-11-23T14:49:56.452Z,9.10
2017-11-23T14:52:23.972Z,8.90
2017-11-23T14:54:51.430Z,8.80
2017-11-23T14:57:19.003Z,8.80
2017-11-23T14:59:46.492Z,8.80
2017-11-23T15:02:13.965Z,8.70
2017-11-23T15:04:41.499Z,8.50
2017-11-23T15:07:08.961Z,8.40
2017-11-23T15:09:36.461Z,8.30
2017-11-23T15:12:04.683Z,8.10
2017-11-23T15:14:32.152Z,8.10
2017-11-23T15:16:59.679Z,8.10
2017-11-23T15:19:27.163Z,7.90
2017-11-23T15:21:54.699Z,7.70
2017-11-23T15:24:22.204Z,7.60
2017-11-23T15:26:49.705Z,7.40
2017-11-23T15:29:17.240Z,7.30
2017-11-23T15:31:44.714Z,7.20
2017-11-23T15:34:12.978Z,7.00
2017-11-23T15:36:41.229Z,7.00
2017-11-23T15:39:08.741Z,7.00
2017-11-23T15:41:36.227Z,6.90
2017-11-23T15:44:03.696Z,6.80
2017-11-23T15:46:31.221Z,6.70
2017-11-23T15:48:58.742Z,6.60
2017-11-23T15:51:26.281Z,6.50
2017-11-23T15:53:53.769Z,6.50
2017-11-23T15:56:22.052Z,6.30
2017-11-23T15:58:50.324Z,6.20
2017-11-23T16:01:18.595Z,6.10
2017-11-23T16:03:46.892Z,6.10
2017-11-23T16:06:15.193Z,5.90
2017-11-23T16:08:42.729Z,5.90
2017-11-23T16:11:11.023Z,5.80
2017-11-23T16:13:38.544Z,5.70
2017-11-23T16:16:06.042Z,5.70
2017-11-23T16:18:33.596Z,5.50
2017-11-23T16:21:01.099Z,5.40
2017-11-23T16:23:28.606Z,5.40
2017-11-23T16:25:56.865Z,5.30
2017-11-23T16:28:25.137Z,5.20
2017-11-23T16:30:53.414Z,5.20
2017-11-23T16:33:20.908Z,5.20
2017-11-23T16:35:54.210Z,5.10
2017-11-23T16:41:41.408Z,5.00
2017-11-23T16:47:03.771Z,5.00
2017-11-23T16:52:33.715Z,4.90
2017-11-23T16:58:12.084Z,5.00
2017-11-23T17:00:45.340Z,5.00
2017-11-23T17:03:19.165Z,5.00
2017-11-23T17:05:52.361Z,5.00
2017-11-23T17:08:22.380Z,4.90
2017-11-23T17:10:55.466Z,4.80
2017-11-23T17:13:28.753Z,4.60
2017-11-23T17:16:06.629Z,4.50
2017-11-23T17:18:37.692Z,4.50
2017-11-23T17:21:05.919Z,4.40
2017-11-23T17:23:33.445Z,4.40
2017-11-23T17:26:00.924Z,4.40
2017-11-23T17:28:28.417Z,4.40
2017-11-23T17:30:55.903Z,4.30
2017-11-23T17:33:24.123Z,4.10
2017-11-23T17:35:51.640Z,4.10
2017-11-23T17:38:19.868Z,4.10
2017-11-23T17:40:47.373Z,4.10
2017-11-23T17:43:15.601Z,4.10
2017-11-23T17:45:43.111Z,4.10
2017-11-23T17:48:11.375Z,4.00
2017-11-23T17:50:38.853Z,3.90
2017-11-23T17:53:07.091Z,3.80
2017-11-23T17:55:34.608Z,3.80
2017-11-23T17:58:02.075Z,3.80
2017-11-23T18:00:29.599Z,3.80
2017-11-23T18:02:57.847Z,3.70
2017-11-23T18:05:25.370Z,3.70
2017-11-23T18:07:52.856Z,3.60
2017-11-23T18:10:20.366Z,3.60
2017-11-23T18:12:47.826Z,3.40
2017-11-23T18:15:15.329Z,3.40
2017-11-23T18:17:42.821Z,3.50
2017-11-23T18:20:11.053Z,3.40
2017-11-23T18:22:38.605Z,3.40
2017-11-23T18:25:06.100Z,3.30
2017-11-23T18:27:33.589Z,3.10
2017-11-23T18:30:01.875Z,3.10
2017-11-23T18:32:29.349Z,3.00
2017-11-23T18:34:56.836Z,3.10
2017-11-23T18:37:24.359Z,3.20
2017-11-23T18:39:51.830Z,3.20
2017-11-23T18:42:19.336Z,3.30
2017-11-23T18:44:46.808Z,3.30
2017-11-23T18:47:15.074Z,3.30
2017-11-23T18:49:42.586Z,3.30
2017-11-23T18:52:10.099Z,3.40
2017-11-23T18:54:38.374Z,3.40
2017-11-23T18:57:05.832Z,3.30
2017-11-23T18:59:34.137Z,3.40
2017-11-23T19:02:01.609Z,3.30
2017-11-23T19:04:29.086Z,3.40
2017-11-23T19:06:56.623Z,3.40
2017-11-23T19:09:24.097Z,3.40
2017-11-23T19:11:51.641Z,3.40
2017-11-23T19:14:19.117Z,3.40
2017-11-23T19:16:46.611Z,3.50
2017-11-23T19:19:14.104Z,3.40
2017-11-23T19:21:41.598Z,3.40
2017-11-23T19:24:09.089Z,3.40
2017-11-23T19:26:36.582Z,3.40
2017-11-23T19:29:04.106Z,3.40
2017-11-23T19:31:31.596Z,3.40
2017-11-23T19:33:59.136Z,3.50
2017-11-23T19:36:27.379Z,3.40
2017-11-23T19:38:54.852Z,3.40
2017-11-23T19:41:22.356Z,3.40
2017-11-23T19:43:49.841Z,3.30
2017-11-23T19:46:17.340Z,3.30
2017-11-23T19:48:44.816Z,3.30
2017-11-23T19:51:13.040Z,3.10
2017-11-23T19:53:40.549Z,3.10
2017-11-23T19:56:08.823Z,3.00
2017-11-23T19:58:37.172Z,3.00
2017-11-23T20:01:04.677Z,3.00
2017-11-23T20:03:32.176Z,2.90
2017-11-23T20:05:59.681Z,2.90
2017-11-23T20:08:27.943Z,2.90
2017-11-23T20:10:55.425Z,2.90
2017-11-23T20:13:22.892Z,2.90
2017-11-23T20:15:50.404Z,2.90
2017-11-23T20:18:17.910Z,2.80
2017-11-23T20:20:45.417Z,2.80
2017-11-23T20:23:15.594Z,2.80
2017-11-23T20:25:43.117Z,2.80
2017-11-23T20:28:10.597Z,2.60
2017-11-23T20:30:38.878Z,2.70
2017-11-23T20:33:06.404Z,2.70
2017-11-23T20:35:33.885Z,2.70
2017-11-23T20:38:02.125Z,2.70
2017-11-23T20:40:29.625Z,2.60
2017-11-23T20:42:57.979Z,2.40
2017-11-23T20:45:26.253Z,2.40
2017-11-23T20:47:55.300Z,2.50
2017-11-23T20:50:22.965Z,2.50
2017-11-23T20:52:50.496Z,2.40
2017-11-23T20:55:18.825Z,2.30
2017-11-23T20:57:46.328Z,2.30
2017-11-23T21:00:14.582Z,2.40
2017-11-23T21:02:42.107Z,2.40
2017-11-23T21:05:09.573Z,2.40
2017-11-23T21:07:37.084Z,2.40
2017-11-23T21:10:05.341Z,2.20
2017-11-23T21:12:33.145Z,2.20
2017-11-23T21:15:00.655Z,2.30
2017-11-23T21:17:28.159Z,2.20
2017-11-23T21:19:55.682Z,2.20
2017-11-23T21:22:23.164Z,2.20
2017-11-23T21:24:51.423Z,2.20
2017-11-23T21:27:18.995Z,2.20
2017-11-23T21:29:47.286Z,2.10
2017-11-23T21:32:15.532Z,2.10
2017-11-23T21:34:54.258Z,2.10
2017-11-23T21:37:21.740Z,2.20
2017-11-23T21:39:49.227Z,2.20
2017-11-23T21:42:16.838Z,2.20
2017-11-23T21:44:44.445Z,2.20
2017-11-23T21:47:12.066Z,2.20
2017-11-23T21:49:39.554Z,2.20
2017-11-23T21:52:07.089Z,2.10
2017-11-23T21:54:35.379Z,1.90
2017-11-23T21:57:03.661Z,2.00
2017-11-23T21:59:31.925Z,2.00
2017-11-23T22:02:00.173Z,2.00
2017-11-23T22:04:28.541Z,1.90
2017-11-23T22:06:56.028Z,1.90
2017-11-23T22:09:24.293Z,1.80
2017-11-23T22:11:51.771Z,1.80
2017-11-23T22:14:20.067Z,1.90
2017-11-23T22:16:47.550Z,1.90
2017-11-23T22:19:15.070Z,2.00
2017-11-23T22:21:43.312Z,1.90
2017-11-23T22:24:10.778Z,1.90
2017-11-23T22:26:38.281Z,1.70
2017-11-23T22:29:05.740Z,1.80
2017-11-23T22:31:33.253Z,1.90
2017-11-23T22:34:00.712Z,1.90
2017-11-23T22:36:28.241Z,1.80
2017-11-23T22:38:55.715Z,1.80
2017-11-23T22:41:23.252Z,1.80
2017-11-23T22:43:50.772Z,1.80
2017-11-23T22:46:19.009Z,1.80
2017-11-23T22:48:46.522Z,1.80
2017-11-23T22:51:14.014Z,1.90
2017-11-23T22:53:41.484Z,1.80
2017-11-23T22:56:08.992Z,1.70
2017-11-23T22:58:37.293Z,1.60
2017-11-23T23:01:04.785Z,1.60
2017-11-23T23:03:32.257Z,1.50
2017-11-23T23:05:59.750Z,1.50
2017-11-23T23:08:27.981Z,1.30
2017-11-23T23:10:55.499Z,1.30
2017-11-23T23:13:23.001Z,1.30
2017-11-23T23:15:50.465Z,1.50
2017-11-23T23:18:17.977Z,1.50
2017-11-23T23:20:45.470Z,1.40
2017-11-23T23:23:12.927Z,1.60
2017-11-23T23:25:40.427Z,1.60
2017-11-23T23:28:08.689Z,1.60
2017-11-23T23:30:36.184Z,1.60
2017-11-23T23:33:03.691Z,1.50
2017-11-23T23:35:31.193Z,1.50
2017-11-23T23:37:58.701Z,1.40
2017-11-23T23:40:26.177Z,1.40
2017-11-23T23:42:53.685Z,1.40
2017-11-23T23:45:21.145Z,1.40
2017-11-23T23:47:48.683Z,1.30
2017-11-23T23:50:16.911Z,1.30
2017-11-23T23:52:44.423Z,1.30
2017-11-23T23:55:11.892Z,1.40
2017-11-23T23:57:39.400Z,1.30
